PWSweather.com
Personal Weather Stations
Station Observations
PALMY
Palmerston NorthNZ 4410

Palmerston NorthNZ 4410

Lat: -40.349104, Lon: 175.615094

Elevation: 75.4

Station Type: WeatherDuino Pro2

http://palmyweather.co.nz

Latest ConditionsUpdated 8:20:00 PM GMT+12:12 Monday, Aug 26, 2019
Currently Today's Max Today's Min Today's Average
Temperature 52.0°F11.1°C 57.7°F14.3°C 50.0°F10.0°C 53.5°F11.9°C
Dew Point 30.7°F-0.7°C 43.6°F6.4°C 18.0°F-7.8°C 30.4°F-0.9°C
Winds 6.7 mph WNW10.8 kmh WNW 13.0 mph -20.9 kmh - - 8.1 mph 13.0 kmh
Wind Gusts 16.6 mph26.7 kmh 37.6 mph60.5 kmh - -
Humidity 44% 62% 26% 42%
Pressure 29.77 in1008.1 mb 29.78 in1008.5 mb 29.64 in1003.7 mb -
Precipitation - 0.07 in1.8 mm - -
Hour Temp Dew Point Humidity Winds Wind Gusts Pressure Precip Precip Rate Daily Precip Total
08:20 PM 52.0°F11.1°C 30.7°F-0.7°C 44% 6.7 mph WNW10.8 kmh WNW 16.6 mph26.7 kmh 29.77 in1008.1 mb 0.00 in0.0 mm 0.00 in0.0 mm 0.07 in1.8 mm
08:15 PM 52.2°F11.2°C 32.0°F0.0°C 46% 7.2 mph W11.6 kmh W 18.8 mph30.3 kmh 29.76 in1007.8 mb 0.00 in0.0 mm 0.00 in0.0 mm 0.07 in1.8 mm
08:10 PM 52.2°F11.2°C 32.6°F0.3°C 47% 9.0 mph W14.5 kmh W 19.3 mph31.1 kmh 29.76 in1007.8 mb 0.00 in0.0 mm 0.00 in0.0 mm 0.07 in1.8 mm
08:05 PM 52.2°F11.2°C 32.0°F0.0°C 46% 9.4 mph WNW15.1 kmh WNW 30.9 mph49.7 kmh 29.75 in1007.5 mb 0.00 in0.0 mm 0.00 in0.0 mm 0.07 in1.8 mm
08:00 PM 52.2°F11.2°C 31.5°F-0.3°C 45% 9.4 mph WNW15.1 kmh WNW 30.9 mph49.7 kmh 29.75 in1007.5 mb 0.00 in0.0 mm 0.00 in0.0 mm 0.07 in1.8 mm
07:55 PM 52.2°F11.2°C 31.5°F-0.3°C 45% 9.4 mph WNW15.1 kmh WNW 24.6 mph39.6 kmh 29.75 in1007.5 mb 0.00 in0.0 mm 0.00 in0.0 mm 0.07 in1.8 mm
07:50 PM 52.3°F11.3°C 31.0°F-0.6°C 44% 9.0 mph WNW14.5 kmh WNW 24.6 mph39.6 kmh 29.75 in1007.5 mb 0.00 in0.0 mm 0.00 in0.0 mm 0.07 in1.8 mm
07:45 PM 52.3°F11.3°C 31.0°F-0.6°C 44% 9.0 mph WNW14.5 kmh WNW 20.2 mph32.5 kmh 29.75 in1007.5 mb 0.00 in0.0 mm 0.00 in0.0 mm 0.07 in1.8 mm
07:40 PM 52.3°F11.3°C 30.4°F-0.9°C 43% 8.5 mph WNW13.7 kmh WNW 17.0 mph27.4 kmh 29.74 in1007.1 mb 0.00 in0.0 mm 0.00 in0.0 mm 0.07 in1.8 mm
07:35 PM 52.3°F11.3°C 30.4°F-0.9°C 43% 8.1 mph WNW13.0 kmh WNW 18.4 mph29.6 kmh 29.74 in1007.1 mb 0.00 in0.0 mm 0.00 in0.0 mm 0.07 in1.8 mm
07:30 PM 52.3°F11.3°C 30.4°F-0.9°C 43% 8.5 mph WNW13.7 kmh WNW 25.5 mph41.0 kmh 29.74 in1007.1 mb 0.00 in0.0 mm 0.00 in0.0 mm 0.07 in1.8 mm
07:25 PM 52.3°F11.3°C 30.4°F-0.9°C 43% 8.1 mph W13.0 kmh W 25.5 mph41.0 kmh 29.73 in1006.8 mb 0.00 in0.0 mm 0.00 in0.0 mm 0.07 in1.8 mm
07:20 PM 52.3°F11.3°C 30.4°F-0.9°C 43% 9.0 mph WNW14.5 kmh WNW 22.4 mph36.0 kmh 29.73 in1006.8 mb 0.00 in0.0 mm 0.00 in0.0 mm 0.07 in1.8 mm
07:15 PM 52.3°F11.3°C 30.4°F-0.9°C 43% 10.3 mph WNW16.6 kmh WNW 24.2 mph38.9 kmh 29.73 in1006.8 mb 0.00 in0.0 mm 0.00 in0.0 mm 0.07 in1.8 mm
07:10 PM 52.3°F11.3°C 30.4°F-0.9°C 43% 9.4 mph WNW15.1 kmh WNW 24.2 mph38.9 kmh 29.73 in1006.8 mb 0.00 in0.0 mm 0.00 in0.0 mm 0.07 in1.8 mm
07:05 PM 52.3°F11.3°C 30.4°F-0.9°C 43% 9.0 mph WNW14.5 kmh WNW 22.4 mph36.0 kmh 29.73 in1006.8 mb 0.00 in0.0 mm 0.00 in0.0 mm 0.07 in1.8 mm
07:00 PM 52.3°F11.3°C 30.4°F-0.9°C 43% 9.4 mph WNW15.1 kmh WNW 22.4 mph36.0 kmh 29.72 in1006.4 mb 0.00 in0.0 mm 0.00 in0.0 mm 0.07 in1.8 mm
06:55 PM 52.2°F11.2°C 30.9°F-0.6°C 44% 9.9 mph WNW15.9 kmh WNW 20.6 mph33.2 kmh 29.72 in1006.4 mb 0.00 in0.0 mm 0.00 in0.0 mm 0.07 in1.8 mm
06:50 PM 52.3°F11.3°C 31.6°F-0.2°C 45% 9.4 mph WNW15.1 kmh WNW 20.2 mph32.5 kmh 29.72 in1006.4 mb 0.00 in0.0 mm 0.00 in0.0 mm 0.07 in1.8 mm
06:45 PM 52.2°F11.2°C 31.5°F-0.3°C 45% 9.0 mph WNW14.5 kmh WNW 20.2 mph32.5 kmh 29.72 in1006.4 mb 0.00 in0.0 mm 0.00 in0.0 mm 0.07 in1.8 mm
06:40 PM 52.2°F11.2°C 30.9°F-0.6°C 44% 9.4 mph WNW15.1 kmh WNW 25.1 mph40.4 kmh 29.71 in1006.1 mb 0.00 in0.0 mm 0.00 in0.0 mm 0.07 in1.8 mm
06:35 PM 52.3°F11.3°C 30.4°F-0.9°C 43% 9.4 mph WNW15.1 kmh WNW 25.1 mph40.4 kmh 29.71 in1006.1 mb 0.00 in0.0 mm 0.00 in0.0 mm 0.07 in1.8 mm
06:30 PM 52.5°F11.4°C 30.6°F-0.8°C 43% 9.0 mph WNW14.5 kmh WNW 22.0 mph35.4 kmh 29.71 in1006.1 mb 0.00 in0.0 mm 0.00 in0.0 mm 0.07 in1.8 mm
06:25 PM 52.3°F11.3°C 30.4°F-0.9°C 43% 9.0 mph WNW14.5 kmh WNW 22.4 mph36.0 kmh 29.70 in1005.8 mb 0.00 in0.0 mm 0.00 in0.0 mm 0.07 in1.8 mm
06:20 PM 52.5°F11.4°C 31.2°F-0.4°C 44% 9.0 mph WNW14.5 kmh WNW 22.4 mph36.0 kmh 29.70 in1005.8 mb 0.00 in0.0 mm 0.00 in0.0 mm 0.07 in1.8 mm
06:15 PM 52.7°F11.5°C 31.4°F-0.3°C 44% 9.0 mph WNW14.5 kmh WNW 21.5 mph34.6 kmh 29.70 in1005.8 mb 0.00 in0.0 mm 0.00 in0.0 mm 0.07 in1.8 mm
06:10 PM 52.7°F11.5°C 31.4°F-0.3°C 44% 9.9 mph W15.9 kmh W 23.7 mph38.1 kmh 29.69 in1005.4 mb 0.00 in0.0 mm 0.00 in0.0 mm 0.07 in1.8 mm
06:05 PM 52.7°F11.5°C 31.4°F-0.3°C 44% 9.4 mph W15.1 kmh W 23.7 mph38.1 kmh 29.69 in1005.4 mb 0.00 in0.0 mm 0.00 in0.0 mm 0.07 in1.8 mm
06:00 PM 52.7°F11.5°C 31.4°F-0.3°C 44% 9.9 mph WNW15.9 kmh WNW 24.2 mph38.9 kmh 29.69 in1005.4 mb 0.00 in0.0 mm 0.00 in0.0 mm 0.07 in1.8 mm
05:55 PM 52.9°F11.6°C 31.0°F-0.6°C 43% 9.0 mph WNW14.5 kmh WNW 24.2 mph38.9 kmh 29.69 in1005.4 mb 0.00 in0.0 mm 0.00 in0.0 mm 0.07 in1.8 mm
05:50 PM 52.9°F11.6°C 31.6°F-0.2°C 44% 9.0 mph WNW14.5 kmh WNW 19.7 mph31.7 kmh 29.68 in1005.1 mb 0.00 in0.0 mm 0.00 in0.0 mm 0.07 in1.8 mm
05:45 PM 53.1°F11.7°C 31.7°F-0.2°C 44% 9.9 mph WNW15.9 kmh WNW 19.7 mph31.7 kmh 29.68 in1005.1 mb 0.00 in0.0 mm 0.00 in0.0 mm 0.07 in1.8 mm
05:40 PM 53.2°F11.8°C 32.4°F0.2°C 45% 9.0 mph WNW14.5 kmh WNW 22.8 mph36.7 kmh 29.68 in1005.1 mb 0.00 in0.0 mm 0.00 in0.0 mm 0.07 in1.8 mm
05:35 PM 53.6°F12.0°C 32.8°F0.4°C 45% 8.5 mph W13.7 kmh W 22.8 mph36.7 kmh 29.68 in1005.1 mb 0.00 in0.0 mm 0.00 in0.0 mm 0.07 in1.8 mm
05:30 PM 53.6°F12.0°C 32.2°F0.1°C 44% 9.0 mph W14.5 kmh W 20.2 mph32.5 kmh 29.68 in1005.1 mb 0.00 in0.0 mm 0.00 in0.0 mm 0.07 in1.8 mm
05:25 PM 53.6°F12.0°C 32.8°F0.4°C 45% 9.9 mph W15.9 kmh W 20.2 mph32.5 kmh 29.68 in1005.1 mb 0.00 in0.0 mm 0.00 in0.0 mm 0.07 in1.8 mm
05:20 PM 53.6°F12.0°C 32.8°F0.4°C 45% 9.4 mph WNW15.1 kmh WNW 19.7 mph31.7 kmh 29.68 in1005.1 mb 0.00 in0.0 mm 0.00 in0.0 mm 0.07 in1.8 mm
05:15 PM 53.8°F12.1°C 33.5°F0.8°C 46% 9.0 mph W14.5 kmh W 20.2 mph32.5 kmh 29.68 in1005.1 mb 0.00 in0.0 mm 0.00 in0.0 mm 0.07 in1.8 mm
05:10 PM 54.0°F12.2°C 34.7°F1.5°C 48% 8.5 mph W13.7 kmh W 23.3 mph37.5 kmh 29.68 in1005.1 mb 0.00 in0.0 mm 0.00 in0.0 mm 0.07 in1.8 mm
05:05 PM 54.0°F12.2°C 36.3°F2.4°C 51% 9.4 mph W15.1 kmh W 23.3 mph37.5 kmh 29.68 in1005.1 mb 0.00 in0.0 mm 0.00 in0.0 mm 0.07 in1.8 mm
05:00 PM 54.0°F12.2°C 36.8°F2.7°C 52% 10.3 mph WNW16.6 kmh WNW 23.3 mph37.5 kmh 29.68 in1005.1 mb 0.00 in0.0 mm 0.00 in0.0 mm 0.07 in1.8 mm
04:55 PM 54.1°F12.3°C 37.3°F2.9°C 53% 10.3 mph W16.6 kmh W 26.0 mph41.8 kmh 29.68 in1005.1 mb 0.00 in0.0 mm 0.00 in0.0 mm 0.07 in1.8 mm
04:50 PM 54.3°F12.4°C 37.0°F2.8°C 52% 10.3 mph W16.6 kmh W 26.0 mph41.8 kmh 29.68 in1005.1 mb 0.00 in0.0 mm 0.00 in0.0 mm 0.07 in1.8 mm
04:45 PM 54.5°F12.5°C 36.7°F2.6°C 51% 10.8 mph W17.4 kmh W 30.0 mph48.3 kmh 29.67 in1004.7 mb 0.00 in0.0 mm 0.00 in0.0 mm 0.07 in1.8 mm
04:40 PM 54.3°F12.4°C 35.5°F1.9°C 49% 10.3 mph W16.6 kmh W 30.0 mph48.3 kmh 29.67 in1004.7 mb 0.00 in0.0 mm 0.00 in0.0 mm 0.07 in1.8 mm
04:35 PM 54.0°F12.2°C 35.3°F1.8°C 49% 9.4 mph W15.1 kmh W 23.7 mph38.1 kmh 29.67 in1004.7 mb 0.00 in0.0 mm 0.00 in0.0 mm 0.07 in1.8 mm
04:30 PM 53.8°F12.1°C 34.0°F1.1°C 47% 8.5 mph W13.7 kmh W 20.6 mph33.2 kmh 29.66 in1004.4 mb 0.00 in0.0 mm 0.00 in0.0 mm 0.07 in1.8 mm
04:25 PM 53.8°F12.1°C 31.8°F-0.1°C 43% 9.0 mph W14.5 kmh W 20.6 mph33.2 kmh 29.66 in1004.4 mb 0.00 in0.0 mm 0.00 in0.0 mm 0.07 in1.8 mm
04:20 PM 54.0°F12.2°C 31.4°F-0.3°C 42% 10.8 mph W17.4 kmh W 23.7 mph38.1 kmh 29.66 in1004.4 mb 0.00 in0.0 mm 0.00 in0.0 mm 0.07 in1.8 mm
04:15 PM 54.1°F12.3°C 30.3°F-0.9°C 40% 11.2 mph W18.0 kmh W 25.1 mph40.4 kmh 29.66 in1004.4 mb 0.00 in0.0 mm 0.00 in0.0 mm 0.07 in1.8 mm
04:10 PM 54.5°F12.5°C 33.0°F0.6°C 44% 11.2 mph WNW18.0 kmh WNW 25.1 mph40.4 kmh 29.66 in1004.4 mb 0.00 in0.0 mm 0.00 in0.0 mm 0.07 in1.8 mm
04:05 PM 55.2°F12.9°C 35.3°F1.8°C 47% 9.9 mph W15.9 kmh W 24.2 mph38.9 kmh 29.66 in1004.4 mb 0.00 in0.0 mm 0.00 in0.0 mm 0.07 in1.8 mm
04:00 PM 55.4°F13.0°C 36.0°F2.2°C 48% 9.0 mph WNW14.5 kmh WNW 24.2 mph38.9 kmh 29.66 in1004.4 mb 0.00 in0.0 mm 0.00 in0.0 mm 0.07 in1.8 mm
03:55 PM 56.1°F13.4°C 36.7°F2.6°C 48% 9.9 mph WNW15.9 kmh WNW 26.9 mph43.3 kmh 29.66 in1004.4 mb 0.00 in0.0 mm 0.00 in0.0 mm 0.07 in1.8 mm
03:50 PM 56.1°F13.4°C 37.2°F2.9°C 49% 10.8 mph WNW17.4 kmh WNW 30.5 mph49.1 kmh 29.66 in1004.4 mb 0.00 in0.0 mm 0.00 in0.0 mm 0.07 in1.8 mm
03:45 PM 56.3°F13.5°C 38.9°F3.8°C 52% 11.6 mph WNW18.7 kmh WNW 30.5 mph49.1 kmh 29.65 in1004.1 mb 0.00 in0.0 mm 0.00 in0.0 mm 0.07 in1.8 mm
03:40 PM 57.0°F13.9°C 40.0°F4.4°C 53% 11.2 mph WNW18.0 kmh WNW 25.1 mph40.4 kmh 29.65 in1004.1 mb 0.00 in0.0 mm 0.00 in0.0 mm 0.07 in1.8 mm
03:35 PM 56.5°F13.6°C 38.6°F3.7°C 51% 10.3 mph WNW16.6 kmh WNW 23.3 mph37.5 kmh 29.65 in1004.1 mb 0.00 in0.0 mm 0.00 in0.0 mm 0.07 in1.8 mm
03:30 PM 55.4°F13.0°C 36.0°F2.2°C 48% 10.3 mph WNW16.6 kmh WNW 23.3 mph37.5 kmh 29.65 in1004.1 mb 0.00 in0.0 mm 0.00 in0.0 mm 0.07 in1.8 mm
03:25 PM 55.0°F12.8°C 36.2°F2.3°C 49% 10.3 mph NW16.6 kmh NW 22.8 mph36.7 kmh 29.65 in1004.1 mb 0.00 in0.0 mm 0.00 in0.0 mm 0.07 in1.8 mm
03:20 PM 55.4°F13.0°C 36.0°F2.2°C 48% 10.8 mph WNW17.4 kmh WNW 30.5 mph49.1 kmh 29.64 in1003.7 mb 0.00 in0.0 mm 0.00 in0.0 mm 0.07 in1.8 mm
03:15 PM 55.4°F13.0°C 36.5°F2.5°C 49% 12.1 mph WNW19.5 kmh WNW 30.5 mph49.1 kmh 29.65 in1004.1 mb 0.00 in0.0 mm 0.00 in0.0 mm 0.07 in1.8 mm
03:10 PM 55.8°F13.2°C 37.9°F3.3°C 51% 12.1 mph WNW19.5 kmh WNW 25.1 mph40.4 kmh 29.65 in1004.1 mb 0.00 in0.0 mm 0.00 in0.0 mm 0.07 in1.8 mm
03:05 PM 56.5°F13.6°C 39.6°F4.2°C 53% 12.5 mph WNW20.1 kmh WNW 26.4 mph42.5 kmh 29.66 in1004.4 mb 0.00 in0.0 mm 0.00 in0.0 mm 0.07 in1.8 mm
03:00 PM 57.0°F13.9°C 40.5°F4.7°C 54% 11.6 mph WNW18.7 kmh WNW 26.4 mph42.5 kmh 29.66 in1004.4 mb 0.00 in0.0 mm 0.00 in0.0 mm 0.07 in1.8 mm
02:55 PM 56.7°F13.7°C 40.2°F4.6°C 54% 10.8 mph W17.4 kmh W 25.5 mph41.0 kmh 29.65 in1004.1 mb 0.00 in0.0 mm 0.00 in0.0 mm 0.07 in1.8 mm
02:50 PM 57.2°F14.0°C 41.6°F5.3°C 56% 12.1 mph WNW19.5 kmh WNW 27.8 mph44.7 kmh 29.65 in1004.1 mb 0.00 in0.0 mm 0.00 in0.0 mm 0.07 in1.8 mm
02:45 PM 56.8°F13.8°C 40.8°F4.9°C 55% 11.6 mph WNW18.7 kmh WNW 27.8 mph44.7 kmh 29.64 in1003.7 mb 0.00 in0.0 mm 0.00 in0.0 mm 0.07 in1.8 mm
02:40 PM 57.2°F14.0°C 40.2°F4.6°C 53% 10.3 mph WNW16.6 kmh WNW 25.5 mph41.0 kmh 29.65 in1004.1 mb 0.00 in0.0 mm 0.00 in0.0 mm 0.07 in1.8 mm
02:35 PM 57.6°F14.2°C 42.0°F5.6°C 56% 10.8 mph WNW17.4 kmh WNW 37.6 mph60.5 kmh 29.65 in1004.1 mb 0.00 in0.0 mm 0.00 in0.0 mm 0.07 in1.8 mm
02:30 PM 57.0°F13.9°C 41.0°F5.0°C 55% 11.6 mph WNW18.7 kmh WNW 37.6 mph60.5 kmh 29.65 in1004.1 mb 0.00 in0.0 mm 0.00 in0.0 mm 0.07 in1.8 mm
02:25 PM 56.5°F13.6°C 39.6°F4.2°C 53% 11.6 mph WNW18.7 kmh WNW 32.3 mph52.0 kmh 29.65 in1004.1 mb 0.00 in0.0 mm 0.00 in0.0 mm 0.07 in1.8 mm
02:20 PM 55.4°F13.0°C 38.1°F3.4°C 52% 10.8 mph WNW17.4 kmh WNW 32.3 mph52.0 kmh 29.64 in1003.7 mb 0.00 in0.0 mm 0.00 in0.0 mm 0.07 in1.8 mm
02:15 PM 54.5°F12.5°C 36.7°F2.6°C 51% 11.2 mph WNW18.0 kmh WNW 26.9 mph43.3 kmh 29.64 in1003.7 mb 0.00 in0.0 mm 0.00 in0.0 mm 0.07 in1.8 mm
02:10 PM 54.9°F12.7°C 39.0°F3.9°C 55% 10.8 mph WNW17.4 kmh WNW 26.9 mph43.3 kmh 29.64 in1003.7 mb 0.00 in0.0 mm 0.00 in0.0 mm 0.07 in1.8 mm
02:05 PM 55.2°F12.9°C 40.2°F4.6°C 57% 10.8 mph W17.4 kmh W 23.3 mph37.5 kmh 29.64 in1003.7 mb 0.00 in0.0 mm 0.00 in0.0 mm 0.07 in1.8 mm
02:00 PM 55.0°F12.8°C 39.6°F4.2°C 56% 10.3 mph W16.6 kmh W 23.3 mph37.5 kmh 29.65 in1004.1 mb 0.00 in0.0 mm 0.00 in0.0 mm 0.07 in1.8 mm
01:55 PM 55.0°F12.8°C 39.1°F3.9°C 55% 10.8 mph WNW17.4 kmh WNW 24.2 mph38.9 kmh 29.65 in1004.1 mb 0.00 in0.0 mm 0.00 in0.0 mm 0.07 in1.8 mm
01:50 PM 55.0°F12.8°C 38.6°F3.7°C 54% 13.0 mph WNW20.9 kmh WNW 28.2 mph45.4 kmh 29.64 in1003.7 mb 0.00 in0.0 mm 0.00 in0.0 mm 0.07 in1.8 mm
01:45 PM 54.9°F12.7°C 39.0°F3.9°C 55% 12.1 mph WNW19.5 kmh WNW 31.8 mph51.2 kmh 29.65 in1004.1 mb 0.00 in0.0 mm 0.00 in0.0 mm 0.07 in1.8 mm
01:40 PM 54.9°F12.7°C 39.0°F3.9°C 55% 11.6 mph WNW18.7 kmh WNW 31.8 mph51.2 kmh 29.65 in1004.1 mb 0.00 in0.0 mm 0.00 in0.0 mm 0.07 in1.8 mm
01:35 PM 54.9°F12.7°C 39.0°F3.9°C 55% 11.6 mph W18.7 kmh W 25.5 mph41.0 kmh 29.65 in1004.1 mb 0.00 in0.0 mm 0.00 in0.0 mm 0.07 in1.8 mm
01:30 PM 55.9°F13.3°C 40.4°F4.7°C 56% 10.8 mph WNW17.4 kmh WNW 25.5 mph41.0 kmh 29.65 in1004.1 mb 0.00 in0.0 mm 0.00 in0.0 mm 0.07 in1.8 mm
01:25 PM 55.6°F13.1°C 40.1°F4.5°C 56% 10.8 mph WNW17.4 kmh WNW 25.5 mph41.0 kmh 29.66 in1004.4 mb 0.00 in0.0 mm 0.00 in0.0 mm 0.07 in1.8 mm
01:20 PM 55.6°F13.1°C 40.1°F4.5°C 56% 11.2 mph WNW18.0 kmh WNW 25.1 mph40.4 kmh 29.66 in1004.4 mb 0.00 in0.0 mm 0.00 in0.0 mm 0.07 in1.8 mm
01:15 PM 55.6°F13.1°C 41.5°F5.3°C 59% 10.3 mph WNW16.6 kmh WNW 25.1 mph40.4 kmh 29.66 in1004.4 mb 0.00 in0.0 mm 0.00 in0.0 mm 0.07 in1.8 mm
01:10 PM 55.8°F13.2°C 40.8°F4.9°C 57% 11.2 mph WNW18.0 kmh WNW 30.5 mph49.1 kmh 29.67 in1004.7 mb 0.00 in0.0 mm 0.00 in0.0 mm 0.07 in1.8 mm
01:05 PM 56.1°F13.4°C 41.5°F5.3°C 58% 11.2 mph W18.0 kmh W 30.5 mph49.1 kmh 29.66 in1004.4 mb 0.00 in0.0 mm 0.00 in0.0 mm 0.07 in1.8 mm
01:00 PM 56.1°F13.4°C 41.1°F5.1°C 57% 9.4 mph W15.1 kmh W 23.7 mph38.1 kmh 29.67 in1004.7 mb 0.00 in0.0 mm 0.00 in0.0 mm 0.07 in1.8 mm
12:55 PM 55.4°F13.0°C 40.0°F4.4°C 56% 9.4 mph W15.1 kmh W 21.5 mph34.6 kmh 29.67 in1004.7 mb 0.00 in0.0 mm 0.00 in0.0 mm 0.07 in1.8 mm
12:50 PM 56.3°F13.5°C 40.3°F4.6°C 55% 10.8 mph WNW17.4 kmh WNW 24.2 mph38.9 kmh 29.68 in1005.1 mb 0.00 in0.0 mm 0.00 in0.0 mm 0.07 in1.8 mm
12:45 PM 56.1°F13.4°C 41.5°F5.3°C 58% 11.2 mph WNW18.0 kmh WNW 30.0 mph48.3 kmh 29.67 in1004.7 mb 0.00 in0.0 mm 0.00 in0.0 mm 0.07 in1.8 mm
12:40 PM 57.7°F14.3°C 43.0°F6.1°C 58% 11.2 mph WNW18.0 kmh WNW 30.0 mph48.3 kmh 29.67 in1004.7 mb 0.00 in0.0 mm 0.00 in0.0 mm 0.07 in1.8 mm
12:35 PM 57.7°F14.3°C 43.0°F6.1°C 58% 9.4 mph WNW15.1 kmh WNW 27.8 mph44.7 kmh 29.67 in1004.7 mb 0.00 in0.0 mm 0.00 in0.0 mm 0.07 in1.8 mm
12:30 PM 57.7°F14.3°C 43.0°F6.1°C 58% 8.5 mph W13.7 kmh W 25.5 mph41.0 kmh 29.67 in1004.7 mb 0.00 in0.0 mm 0.00 in0.0 mm 0.07 in1.8 mm
12:25 PM 57.2°F14.0°C 41.6°F5.3°C 56% 9.0 mph WNW14.5 kmh WNW 23.3 mph37.5 kmh 29.67 in1004.7 mb 0.00 in0.0 mm 0.00 in0.0 mm 0.07 in1.8 mm
12:20 PM 56.7°F13.7°C 40.2°F4.6°C 54% 9.9 mph WNW15.9 kmh WNW 23.3 mph37.5 kmh 29.67 in1004.7 mb 0.00 in0.0 mm 0.00 in0.0 mm 0.07 in1.8 mm
12:15 PM 55.4°F13.0°C 38.1°F3.4°C 52% 10.3 mph WNW16.6 kmh WNW 23.3 mph37.5 kmh 29.66 in1004.4 mb 0.02 in0.5 mm 0.00 in0.0 mm 0.07 in1.8 mm
12:10 PM 55.2°F12.9°C 37.9°F3.3°C 52% 10.8 mph WNW17.4 kmh WNW 27.8 mph44.7 kmh 29.67 in1004.7 mb 0.02 in0.5 mm 0.00 in0.0 mm 0.07 in1.8 mm
12:05 PM 55.2°F12.9°C 37.9°F3.3°C 52% 10.8 mph WNW17.4 kmh WNW 27.8 mph44.7 kmh 29.67 in1004.7 mb 0.02 in0.5 mm 0.00 in0.0 mm 0.07 in1.8 mm
12:00 PM 54.5°F12.5°C 36.2°F2.3°C 50% 10.3 mph WNW16.6 kmh WNW 25.5 mph41.0 kmh 29.68 in1005.1 mb 0.02 in0.5 mm 0.00 in0.0 mm 0.07 in1.8 mm
11:55 AM 54.3°F12.4°C 33.9°F1.1°C 46% 10.3 mph WNW16.6 kmh WNW 25.1 mph40.4 kmh 29.68 in1005.1 mb 0.02 in0.5 mm 0.00 in0.0 mm 0.07 in1.8 mm
11:50 AM 54.5°F12.5°C 38.7°F3.7°C 55% 11.2 mph W18.0 kmh W 29.1 mph46.8 kmh 29.68 in1005.1 mb 0.02 in0.5 mm 0.00 in0.0 mm 0.07 in1.8 mm
11:45 AM 55.6°F13.1°C 41.9°F5.5°C 60% 11.6 mph W18.7 kmh W 29.1 mph46.8 kmh 29.67 in1004.7 mb 0.02 in0.5 mm 0.00 in0.0 mm 0.07 in1.8 mm
11:40 AM 56.7°F13.7°C 43.0°F6.1°C 60% 11.2 mph W18.0 kmh W 31.8 mph51.2 kmh 29.68 in1005.1 mb 0.02 in0.5 mm 0.00 in0.0 mm 0.07 in1.8 mm
11:35 AM 55.2°F12.9°C 41.1°F5.1°C 59% 10.8 mph W17.4 kmh W 31.8 mph51.2 kmh 29.68 in1005.1 mb 0.02 in0.5 mm 0.00 in0.0 mm 0.07 in1.8 mm
11:30 AM 54.1°F12.3°C 35.3°F1.8°C 49% 10.8 mph W17.4 kmh W 25.1 mph40.4 kmh 29.68 in1005.1 mb 0.02 in0.5 mm 0.00 in0.0 mm 0.07 in1.8 mm
11:25 AM 53.6°F12.0°C 35.9°F2.2°C 51% 9.4 mph W15.1 kmh W 23.3 mph37.5 kmh 29.69 in1005.4 mb 0.02 in0.5 mm 0.00 in0.0 mm 0.07 in1.8 mm
11:20 AM 54.1°F12.3°C 37.8°F3.2°C 54% 8.5 mph W13.7 kmh W 20.6 mph33.2 kmh 29.69 in1005.4 mb 0.02 in0.5 mm 0.24 in6.1 mm 0.07 in1.8 mm
11:15 AM 55.4°F13.0°C 42.2°F5.7°C 61% 9.0 mph WNW14.5 kmh WNW 23.7 mph38.1 kmh 29.68 in1005.1 mb 0.00 in0.0 mm 0.00 in0.0 mm 0.06 in1.5 mm
11:10 AM 55.4°F13.0°C 42.2°F5.7°C 61% 9.0 mph W14.5 kmh W 23.7 mph38.1 kmh 29.69 in1005.4 mb 0.00 in0.0 mm 0.00 in0.0 mm 0.06 in1.5 mm
11:05 AM 55.4°F13.0°C 42.2°F5.7°C 61% 9.4 mph W15.1 kmh W 30.9 mph49.7 kmh 29.69 in1005.4 mb 0.00 in0.0 mm 0.00 in0.0 mm 0.06 in1.5 mm
11:00 AM 55.9°F13.3°C 43.1°F6.2°C 62% 9.4 mph W15.1 kmh W 30.9 mph49.7 kmh 29.69 in1005.4 mb 0.00 in0.0 mm 0.00 in0.0 mm 0.06 in1.5 mm
10:55 AM 56.5°F13.6°C 43.6°F6.4°C 62% 9.4 mph W15.1 kmh W 28.7 mph46.2 kmh 29.69 in1005.4 mb 0.00 in0.0 mm 0.00 in0.0 mm 0.06 in1.5 mm
10:50 AM 55.6°F13.1°C 42.8°F6.0°C 62% 9.4 mph W15.1 kmh W 28.7 mph46.2 kmh 29.69 in1005.4 mb 0.00 in0.0 mm 0.00 in0.0 mm 0.06 in1.5 mm
10:45 AM 55.9°F13.3°C 43.1°F6.2°C 62% 8.5 mph W13.7 kmh W 22.0 mph35.4 kmh 29.69 in1005.4 mb 0.00 in0.0 mm 0.00 in0.0 mm 0.06 in1.5 mm
10:40 AM 56.8°F13.8°C 43.5°F6.4°C 61% 9.0 mph W14.5 kmh W 23.3 mph37.5 kmh 29.69 in1005.4 mb 0.00 in0.0 mm 0.00 in0.0 mm 0.06 in1.5 mm
10:35 AM 56.5°F13.6°C 43.2°F6.2°C 61% 10.3 mph W16.6 kmh W 23.3 mph37.5 kmh 29.69 in1005.4 mb 0.00 in0.0 mm 0.00 in0.0 mm 0.06 in1.5 mm
10:30 AM 55.9°F13.3°C 43.1°F6.2°C 62% 9.9 mph WSW15.9 kmh WSW 22.4 mph36.0 kmh 29.69 in1005.4 mb 0.00 in0.0 mm 0.00 in0.0 mm 0.06 in1.5 mm
10:25 AM 56.3°F13.5°C 43.0°F6.1°C 61% 8.5 mph W13.7 kmh W 22.4 mph36.0 kmh 29.68 in1005.1 mb 0.00 in0.0 mm 0.00 in0.0 mm 0.06 in1.5 mm
10:20 AM 56.8°F13.8°C 42.6°F5.9°C 59% 7.2 mph W11.6 kmh W 18.8 mph30.3 kmh 29.67 in1004.7 mb 0.00 in0.0 mm 0.00 in0.0 mm 0.06 in1.5 mm
10:15 AM 56.5°F13.6°C 41.9°F5.5°C 58% 8.1 mph W13.0 kmh W 18.8 mph30.3 kmh 29.67 in1004.7 mb 0.00 in0.0 mm 0.00 in0.0 mm 0.06 in1.5 mm
10:10 AM 55.9°F13.3°C 42.2°F5.7°C 60% 9.0 mph W14.5 kmh W 20.6 mph33.2 kmh 29.67 in1004.7 mb 0.00 in0.0 mm 0.00 in0.0 mm 0.06 in1.5 mm
10:05 AM 55.8°F13.2°C 41.7°F5.4°C 59% 9.4 mph W15.1 kmh W 21.5 mph34.6 kmh 29.67 in1004.7 mb 0.00 in0.0 mm 0.00 in0.0 mm 0.06 in1.5 mm
10:00 AM 55.4°F13.0°C 40.9°F4.9°C 58% 8.5 mph WNW13.7 kmh WNW 21.5 mph34.6 kmh 29.67 in1004.7 mb 0.00 in0.0 mm 0.00 in0.0 mm 0.06 in1.5 mm
09:55 AM 55.9°F13.3°C 40.0°F4.4°C 55% 7.6 mph WNW12.2 kmh WNW 19.7 mph31.7 kmh 29.67 in1004.7 mb 0.00 in0.0 mm 0.00 in0.0 mm 0.06 in1.5 mm
09:50 AM 55.9°F13.3°C 40.0°F4.4°C 55% 8.1 mph WNW13.0 kmh WNW 19.7 mph31.7 kmh 29.67 in1004.7 mb 0.01 in0.3 mm 0.00 in0.0 mm 0.06 in1.5 mm
09:45 AM 55.2°F12.9°C 39.3°F4.1°C 55% 8.1 mph W13.0 kmh W 19.7 mph31.7 kmh 29.67 in1004.7 mb 0.01 in0.3 mm 0.00 in0.0 mm 0.06 in1.5 mm
09:40 AM 55.4°F13.0°C 39.5°F4.2°C 55% 7.6 mph W12.2 kmh W 19.7 mph31.7 kmh 29.68 in1005.1 mb 0.02 in0.5 mm 0.00 in0.0 mm 0.06 in1.5 mm
09:35 AM 54.9°F12.7°C 36.6°F2.6°C 50% 7.6 mph W12.2 kmh W 19.7 mph31.7 kmh 29.67 in1004.7 mb 0.02 in0.5 mm 0.00 in0.0 mm 0.06 in1.5 mm
09:30 AM 54.1°F12.3°C 32.6°F0.3°C 44% 8.1 mph WNW13.0 kmh WNW 19.7 mph31.7 kmh 29.67 in1004.7 mb 0.02 in0.5 mm 0.00 in0.0 mm 0.06 in1.5 mm
09:25 AM 54.1°F12.3°C 29.0°F-1.7°C 38% 7.6 mph W12.2 kmh W 17.5 mph28.2 kmh 29.66 in1004.4 mb 0.02 in0.5 mm 0.00 in0.0 mm 0.06 in1.5 mm
09:20 AM 53.2°F11.8°C 26.9°F-2.8°C 36% 7.2 mph WNW11.6 kmh WNW 17.5 mph28.2 kmh 29.66 in1004.4 mb 0.02 in0.5 mm 0.00 in0.0 mm 0.06 in1.5 mm
09:15 AM 52.5°F11.4°C 24.2°F-4.3°C 33% 7.6 mph WNW12.2 kmh WNW 17.5 mph28.2 kmh 29.66 in1004.4 mb 0.02 in0.5 mm 0.00 in0.0 mm 0.06 in1.5 mm
09:10 AM 52.2°F11.2°C 23.2°F-4.9°C 32% 8.5 mph WNW13.7 kmh WNW 17.0 mph27.4 kmh 29.66 in1004.4 mb 0.02 in0.5 mm 0.00 in0.0 mm 0.06 in1.5 mm
09:05 AM 51.6°F10.9°C 23.4°F-4.8°C 33% 9.0 mph WNW14.5 kmh WNW 17.0 mph27.4 kmh 29.66 in1004.4 mb 0.02 in0.5 mm 0.00 in0.0 mm 0.06 in1.5 mm
09:00 AM 50.9°F10.5°C 24.2°F-4.3°C 35% 9.4 mph WNW15.1 kmh WNW 23.3 mph37.5 kmh 29.66 in1004.4 mb 0.02 in0.5 mm 0.00 in0.0 mm 0.06 in1.5 mm
08:55 AM 50.4°F10.2°C 26.3°F-3.2°C 39% 11.6 mph WNW18.7 kmh WNW 33.2 mph53.4 kmh 29.66 in1004.4 mb 0.02 in0.5 mm 0.00 in0.0 mm 0.06 in1.5 mm
08:50 AM 50.0°F10.0°C 28.9°F-1.7°C 44% 10.8 mph WNW17.4 kmh WNW 33.2 mph53.4 kmh 29.66 in1004.4 mb 0.02 in0.5 mm 0.12 in3.0 mm 0.05 in1.3 mm
08:45 AM 51.4°F10.8°C 27.2°F-2.7°C 39% 6.7 mph W10.8 kmh W 33.2 mph53.4 kmh 29.66 in1004.4 mb 0.01 in0.3 mm 0.12 in3.0 mm 0.04 in1.0 mm
08:40 AM 53.6°F12.0°C 27.9°F-2.3°C 37% 6.3 mph W10.1 kmh W 18.4 mph29.6 kmh 29.65 in1004.1 mb 0.00 in0.0 mm 0.00 in0.0 mm 0.03 in0.8 mm
08:35 AM 53.8°F12.1°C 29.4°F-1.4°C 39% 7.6 mph WNW12.2 kmh WNW 18.4 mph29.6 kmh 29.64 in1003.7 mb 0.00 in0.0 mm 0.00 in0.0 mm 0.03 in0.8 mm
08:30 AM 53.8°F12.1°C 29.4°F-1.4°C 39% 9.0 mph NW14.5 kmh NW 21.5 mph34.6 kmh 29.64 in1003.7 mb 0.00 in0.0 mm 0.00 in0.0 mm 0.03 in0.8 mm
08:25 AM 53.6°F12.0°C 28.6°F-1.9°C 38% 9.0 mph NW14.5 kmh NW 21.5 mph34.6 kmh 29.64 in1003.7 mb 0.01 in0.3 mm 0.00 in0.0 mm 0.03 in0.8 mm
08:20 AM 53.2°F11.8°C 26.2°F-3.2°C 35% 7.6 mph NW12.2 kmh NW 17.5 mph28.2 kmh 29.64 in1003.7 mb 0.01 in0.3 mm 0.00 in0.0 mm 0.03 in0.8 mm
08:15 AM 52.9°F11.6°C 24.5°F-4.2°C 33% 7.2 mph WNW11.6 kmh WNW 16.6 mph26.7 kmh 29.64 in1003.7 mb 0.02 in0.5 mm 0.00 in0.0 mm 0.03 in0.8 mm
08:10 AM 52.9°F11.6°C 24.5°F-4.2°C 33% 7.2 mph WNW11.6 kmh WNW 16.6 mph26.7 kmh 29.65 in1004.1 mb 0.03 in0.8 mm 0.00 in0.0 mm 0.03 in0.8 mm
08:05 AM 52.7°F11.5°C 25.1°F-3.8°C 34% 7.6 mph NW12.2 kmh NW 19.7 mph31.7 kmh 29.65 in1004.1 mb 0.03 in0.8 mm 0.00 in0.0 mm 0.03 in0.8 mm
08:00 AM 52.9°F11.6°C 26.0°F-3.3°C 35% 8.5 mph NW13.7 kmh NW 19.7 mph31.7 kmh 29.65 in1004.1 mb 0.03 in0.8 mm 0.00 in0.0 mm 0.03 in0.8 mm
07:55 AM 52.7°F11.5°C 25.1°F-3.8°C 34% 8.5 mph NW13.7 kmh NW 21.5 mph34.6 kmh 29.65 in1004.1 mb 0.03 in0.8 mm 0.00 in0.0 mm 0.03 in0.8 mm
07:50 AM 52.3°F11.3°C 24.0°F-4.4°C 33% 9.4 mph NW15.1 kmh NW 21.5 mph34.6 kmh 29.65 in1004.1 mb 0.03 in0.8 mm 0.00 in0.0 mm 0.03 in0.8 mm
07:45 AM 51.8°F11.0°C 22.1°F-5.5°C 31% 8.5 mph NW13.7 kmh NW 20.2 mph32.5 kmh 29.65 in1004.1 mb 0.03 in0.8 mm 0.00 in0.0 mm 0.03 in0.8 mm
07:40 AM 51.6°F10.9°C 20.3°F-6.5°C 29% 7.2 mph NW11.6 kmh NW 18.4 mph29.6 kmh 29.65 in1004.1 mb 0.03 in0.8 mm 0.00 in0.0 mm 0.03 in0.8 mm
07:35 AM 51.4°F10.8°C 20.2°F-6.6°C 29% 6.3 mph NW10.1 kmh NW 14.8 mph23.8 kmh 29.65 in1004.1 mb 0.03 in0.8 mm 0.00 in0.0 mm 0.03 in0.8 mm
07:30 AM 51.4°F10.8°C 21.0°F-6.1°C 30% 6.3 mph NW10.1 kmh NW 15.2 mph24.5 kmh 29.64 in1003.7 mb 0.03 in0.8 mm 0.12 in3.0 mm 0.03 in0.8 mm
07:25 AM 51.6°F10.9°C 21.9°F-5.6°C 31% 6.3 mph NW10.1 kmh NW 15.2 mph24.5 kmh 29.65 in1004.1 mb 0.02 in0.5 mm 0.00 in0.0 mm 0.02 in0.5 mm
07:20 AM 51.8°F11.0°C 22.8°F-5.1°C 32% 7.2 mph NW11.6 kmh NW 15.7 mph25.3 kmh 29.65 in1004.1 mb 0.02 in0.5 mm 0.00 in0.0 mm 0.02 in0.5 mm
07:15 AM 52.2°F11.2°C 23.9°F-4.5°C 33% 7.6 mph NW12.2 kmh NW 22.4 mph36.0 kmh 29.66 in1004.4 mb 0.02 in0.5 mm 0.24 in6.1 mm 0.02 in0.5 mm
07:10 AM 52.5°F11.4°C 26.9°F-2.8°C 37% 7.2 mph NW11.6 kmh NW 22.4 mph36.0 kmh 29.67 in1004.7 mb 0.00 in0.0 mm 0.00 in0.0 mm 0.00 in0.0 mm
07:05 AM 52.5°F11.4°C 28.8°F-1.8°C 40% 6.7 mph NW10.8 kmh NW 16.1 mph25.9 kmh 29.67 in1004.7 mb 0.00 in0.0 mm 0.00 in0.0 mm 0.00 in0.0 mm
07:00 AM 52.3°F11.3°C 28.7°F-1.8°C 40% 6.3 mph NW10.1 kmh NW 16.1 mph25.9 kmh 29.67 in1004.7 mb 0.00 in0.0 mm 0.00 in0.0 mm 0.00 in0.0 mm
06:55 AM 52.2°F11.2°C 28.0°F-2.2°C 39% 5.8 mph NW9.3 kmh NW 16.6 mph26.7 kmh 29.67 in1004.7 mb 0.00 in0.0 mm 0.00 in0.0 mm 0.00 in0.0 mm
06:50 AM 52.2°F11.2°C 28.0°F-2.2°C 39% 5.4 mph NW8.7 kmh NW 16.6 mph26.7 kmh 29.67 in1004.7 mb 0.00 in0.0 mm 0.00 in0.0 mm 0.00 in0.0 mm
06:45 AM 52.2°F11.2°C 28.0°F-2.2°C 39% 4.9 mph NW7.9 kmh NW 12.5 mph20.1 kmh 29.67 in1004.7 mb 0.00 in0.0 mm 0.00 in0.0 mm 0.00 in0.0 mm
06:40 AM 52.2°F11.2°C 28.6°F-1.9°C 40% 4.9 mph NW7.9 kmh NW 12.5 mph20.1 kmh 29.67 in1004.7 mb 0.00 in0.0 mm 0.00 in0.0 mm 0.00 in0.0 mm
06:35 AM 52.2°F11.2°C 28.6°F-1.9°C 40% 4.9 mph NW7.9 kmh NW 9.9 mph15.9 kmh 29.67 in1004.7 mb 0.00 in0.0 mm 0.00 in0.0 mm 0.00 in0.0 mm
06:30 AM 52.2°F11.2°C 28.0°F-2.2°C 39% 4.9 mph NW7.9 kmh NW 9.4 mph15.1 kmh 29.67 in1004.7 mb 0.00 in0.0 mm 0.00 in0.0 mm 0.00 in0.0 mm
06:25 AM 52.2°F11.2°C 28.0°F-2.2°C 39% 4.0 mph NW6.4 kmh NW 12.1 mph19.5 kmh 29.67 in1004.7 mb 0.00 in0.0 mm 0.00 in0.0 mm 0.00 in0.0 mm
06:20 AM 52.2°F11.2°C 28.0°F-2.2°C 39% 3.6 mph NNW5.8 kmh NNW 12.1 mph19.5 kmh 29.68 in1005.1 mb 0.00 in0.0 mm 0.00 in0.0 mm 0.00 in0.0 mm
06:15 AM 52.2°F11.2°C 28.0°F-2.2°C 39% 3.6 mph NNW5.8 kmh NNW 7.2 mph11.6 kmh 29.68 in1005.1 mb 0.00 in0.0 mm 0.00 in0.0 mm 0.00 in0.0 mm
06:10 AM 52.2°F11.2°C 27.3°F-2.6°C 38% 4.0 mph NNW6.4 kmh NNW 9.9 mph15.9 kmh 29.68 in1005.1 mb 0.00 in0.0 mm 0.00 in0.0 mm 0.00 in0.0 mm
06:05 AM 52.2°F11.2°C 27.3°F-2.6°C 38% 4.0 mph NNW6.4 kmh NNW 9.9 mph15.9 kmh 29.68 in1005.1 mb 0.00 in0.0 mm 0.00 in0.0 mm 0.00 in0.0 mm
06:00 AM 52.0°F11.1°C 25.8°F-3.4°C 36% 3.1 mph N5.0 kmh N 7.6 mph12.2 kmh 29.68 in1005.1 mb 0.00 in0.0 mm 0.00 in0.0 mm 0.00 in0.0 mm
05:55 AM 52.0°F11.1°C 25.8°F-3.4°C 36% 3.1 mph NNW5.0 kmh NNW 7.6 mph12.2 kmh 29.68 in1005.1 mb 0.00 in0.0 mm 0.00 in0.0 mm 0.00 in0.0 mm
05:50 AM 51.8°F11.0°C 25.7°F-3.5°C 36% 3.1 mph NW5.0 kmh NW 5.4 mph8.7 kmh 29.69 in1005.4 mb 0.00 in0.0 mm 0.00 in0.0 mm 0.00 in0.0 mm
05:45 AM 51.6°F10.9°C 24.8°F-4.0°C 35% 2.2 mph NW3.5 kmh NW 5.4 mph8.7 kmh 29.69 in1005.4 mb 0.00 in0.0 mm 0.00 in0.0 mm 0.00 in0.0 mm
05:40 AM 51.6°F10.9°C 25.5°F-3.6°C 36% 2.2 mph NNW3.5 kmh NNW 5.8 mph9.3 kmh 29.69 in1005.4 mb 0.00 in0.0 mm 0.00 in0.0 mm 0.00 in0.0 mm
05:35 AM 51.6°F10.9°C 25.5°F-3.6°C 36% 2.2 mph NNW3.5 kmh NNW 5.8 mph9.3 kmh 29.69 in1005.4 mb 0.00 in0.0 mm 0.00 in0.0 mm 0.00 in0.0 mm
05:30 AM 51.6°F10.9°C 25.5°F-3.6°C 36% 2.2 mph NNW3.5 kmh NNW 4.5 mph7.2 kmh 29.69 in1005.4 mb 0.00 in0.0 mm 0.00 in0.0 mm 0.00 in0.0 mm
05:25 AM 51.6°F10.9°C 25.5°F-3.6°C 36% 2.7 mph NNW4.3 kmh NNW 12.1 mph19.5 kmh 29.69 in1005.4 mb 0.00 in0.0 mm 0.00 in0.0 mm 0.00 in0.0 mm
05:20 AM 51.6°F10.9°C 26.1°F-3.3°C 37% 3.6 mph NNW5.8 kmh NNW 12.1 mph19.5 kmh 29.70 in1005.8 mb 0.00 in0.0 mm 0.00 in0.0 mm 0.00 in0.0 mm
05:15 AM 51.6°F10.9°C 26.1°F-3.3°C 37% 4.0 mph NNW6.4 kmh NNW 7.6 mph12.2 kmh 29.70 in1005.8 mb 0.00 in0.0 mm 0.00 in0.0 mm 0.00 in0.0 mm
05:10 AM 51.6°F10.9°C 25.5°F-3.6°C 36% 3.6 mph NNW5.8 kmh NNW 11.2 mph18.0 kmh 29.70 in1005.8 mb 0.00 in0.0 mm 0.00 in0.0 mm 0.00 in0.0 mm
05:05 AM 51.4°F10.8°C 24.6°F-4.1°C 35% 3.6 mph NW5.8 kmh NW 11.2 mph18.0 kmh 29.70 in1005.8 mb 0.00 in0.0 mm 0.00 in0.0 mm 0.00 in0.0 mm
05:00 AM 51.4°F10.8°C 24.6°F-4.1°C 35% 3.6 mph NW5.8 kmh NW 8.1 mph13.0 kmh 29.70 in1005.8 mb 0.00 in0.0 mm 0.00 in0.0 mm 0.00 in0.0 mm
04:55 AM 51.4°F10.8°C 24.6°F-4.1°C 35% 3.6 mph NW5.8 kmh NW 8.1 mph13.0 kmh 29.70 in1005.8 mb 0.00 in0.0 mm 0.00 in0.0 mm 0.00 in0.0 mm
04:50 AM 51.4°F10.8°C 23.9°F-4.5°C 34% 4.0 mph NW6.4 kmh NW 8.1 mph13.0 kmh 29.70 in1005.8 mb 0.00 in0.0 mm 0.00 in0.0 mm 0.00 in0.0 mm
04:45 AM 51.4°F10.8°C 23.9°F-4.5°C 34% 4.0 mph NNW6.4 kmh NNW 8.1 mph13.0 kmh 29.71 in1006.1 mb 0.00 in0.0 mm 0.00 in0.0 mm 0.00 in0.0 mm
04:40 AM 51.4°F10.8°C 23.2°F-4.9°C 33% 3.6 mph NNW5.8 kmh NNW 8.5 mph13.7 kmh 29.71 in1006.1 mb 0.00 in0.0 mm 0.00 in0.0 mm 0.00 in0.0 mm
04:35 AM 51.3°F10.7°C 22.4°F-5.3°C 32% 3.6 mph NNW5.8 kmh NNW 8.5 mph13.7 kmh 29.71 in1006.1 mb 0.00 in0.0 mm 0.00 in0.0 mm 0.00 in0.0 mm
04:30 AM 51.3°F10.7°C 22.4°F-5.3°C 32% 4.0 mph NW6.4 kmh NW 8.1 mph13.0 kmh 29.71 in1006.1 mb 0.00 in0.0 mm 0.00 in0.0 mm 0.00 in0.0 mm
04:25 AM 51.1°F10.6°C 21.5°F-5.8°C 31% 4.0 mph NW6.4 kmh NW 8.1 mph13.0 kmh 29.71 in1006.1 mb 0.00 in0.0 mm 0.00 in0.0 mm 0.00 in0.0 mm
04:20 AM 51.1°F10.6°C 20.7°F-6.3°C 30% 4.0 mph NW6.4 kmh NW 8.1 mph13.0 kmh 29.71 in1006.1 mb 0.00 in0.0 mm 0.00 in0.0 mm 0.00 in0.0 mm
04:15 AM 51.1°F10.6°C 19.9°F-6.7°C 29% 4.5 mph NW7.2 kmh NW 10.8 mph17.4 kmh 29.71 in1006.1 mb 0.00 in0.0 mm 0.00 in0.0 mm 0.00 in0.0 mm
04:10 AM 50.9°F10.5°C 18.9°F-7.3°C 28% 4.5 mph NW7.2 kmh NW 12.1 mph19.5 kmh 29.71 in1006.1 mb 0.00 in0.0 mm 0.00 in0.0 mm 0.00 in0.0 mm
04:05 AM 50.9°F10.5°C 18.9°F-7.3°C 28% 4.0 mph NW6.4 kmh NW 12.1 mph19.5 kmh 29.71 in1006.1 mb 0.00 in0.0 mm 0.00 in0.0 mm 0.00 in0.0 mm
04:00 AM 50.9°F10.5°C 18.9°F-7.3°C 28% 3.6 mph NNW5.8 kmh NNW 9.0 mph14.5 kmh 29.71 in1006.1 mb 0.00 in0.0 mm 0.00 in0.0 mm 0.00 in0.0 mm
03:55 AM 51.1°F10.6°C 19.1°F-7.2°C 28% 4.0 mph NNW6.4 kmh NNW 9.9 mph15.9 kmh 29.72 in1006.4 mb 0.00 in0.0 mm 0.00 in0.0 mm 0.00 in0.0 mm
03:50 AM 51.3°F10.7°C 20.1°F-6.6°C 29% 4.0 mph NW6.4 kmh NW 9.9 mph15.9 kmh 29.72 in1006.4 mb 0.00 in0.0 mm 0.00 in0.0 mm 0.00 in0.0 mm
03:45 AM 51.3°F10.7°C 20.1°F-6.6°C 29% 3.1 mph NW5.0 kmh NW 7.6 mph12.2 kmh 29.71 in1006.1 mb 0.00 in0.0 mm 0.00 in0.0 mm 0.00 in0.0 mm
03:40 AM 51.4°F10.8°C 20.2°F-6.6°C 29% 3.1 mph NNW5.0 kmh NNW 6.3 mph10.1 kmh 29.71 in1006.1 mb 0.00 in0.0 mm 0.00 in0.0 mm 0.00 in0.0 mm
03:35 AM 51.4°F10.8°C 20.2°F-6.6°C 29% 3.6 mph NNW5.8 kmh NNW 7.6 mph12.2 kmh 29.72 in1006.4 mb 0.00 in0.0 mm 0.00 in0.0 mm 0.00 in0.0 mm
03:30 AM 51.4°F10.8°C 20.2°F-6.6°C 29% 3.6 mph NW5.8 kmh NW 7.6 mph12.2 kmh 29.72 in1006.4 mb 0.00 in0.0 mm 0.00 in0.0 mm 0.00 in0.0 mm
03:25 AM 51.6°F10.9°C 20.3°F-6.5°C 29% 4.5 mph NW7.2 kmh NW 13.4 mph21.6 kmh 29.72 in1006.4 mb 0.00 in0.0 mm 0.00 in0.0 mm 0.00 in0.0 mm
03:20 AM 51.6°F10.9°C 20.3°F-6.5°C 29% 4.9 mph NW7.9 kmh NW 13.4 mph21.6 kmh 29.73 in1006.8 mb 0.00 in0.0 mm 0.00 in0.0 mm 0.00 in0.0 mm
03:15 AM 51.6°F10.9°C 20.3°F-6.5°C 29% 4.5 mph NW7.2 kmh NW 8.1 mph13.0 kmh 29.73 in1006.8 mb 0.00 in0.0 mm 0.00 in0.0 mm 0.00 in0.0 mm
03:10 AM 51.6°F10.9°C 20.3°F-6.5°C 29% 3.6 mph NW5.8 kmh NW 8.1 mph13.0 kmh 29.73 in1006.8 mb 0.00 in0.0 mm 0.00 in0.0 mm 0.00 in0.0 mm
03:05 AM 51.6°F10.9°C 19.5°F-6.9°C 28% 4.0 mph NW6.4 kmh NW 9.9 mph15.9 kmh 29.73 in1006.8 mb 0.00 in0.0 mm 0.00 in0.0 mm 0.00 in0.0 mm
03:00 AM 51.6°F10.9°C 19.5°F-6.9°C 28% 4.5 mph WNW7.2 kmh WNW 9.9 mph15.9 kmh 29.73 in1006.8 mb 0.00 in0.0 mm 0.00 in0.0 mm 0.00 in0.0 mm
02:55 AM 51.6°F10.9°C 19.5°F-6.9°C 28% 5.4 mph WNW8.7 kmh WNW 11.2 mph18.0 kmh 29.74 in1007.1 mb 0.00 in0.0 mm 0.00 in0.0 mm 0.00 in0.0 mm
02:50 AM 51.6°F10.9°C 18.7°F-7.4°C 27% 6.3 mph NW10.1 kmh NW 13.4 mph21.6 kmh 29.74 in1007.1 mb 0.00 in0.0 mm 0.00 in0.0 mm 0.00 in0.0 mm
02:45 AM 51.8°F11.0°C 18.8°F-7.3°C 27% 6.7 mph NW10.8 kmh NW 13.4 mph21.6 kmh 29.74 in1007.1 mb 0.00 in0.0 mm 0.00 in0.0 mm 0.00 in0.0 mm
02:40 AM 51.8°F11.0°C 18.8°F-7.3°C 27% 6.3 mph NW10.1 kmh NW 12.5 mph20.1 kmh 29.74 in1007.1 mb 0.00 in0.0 mm 0.00 in0.0 mm 0.00 in0.0 mm
02:35 AM 51.8°F11.0°C 18.0°F-7.8°C 26% 5.8 mph NW9.3 kmh NW 12.5 mph20.1 kmh 29.74 in1007.1 mb 0.00 in0.0 mm 0.00 in0.0 mm 0.00 in0.0 mm
02:30 AM 51.8°F11.0°C 18.0°F-7.8°C 26% 5.4 mph NW8.7 kmh NW 10.3 mph16.6 kmh 29.75 in1007.5 mb 0.00 in0.0 mm 0.00 in0.0 mm 0.00 in0.0 mm
02:25 AM 51.8°F11.0°C 18.0°F-7.8°C 26% 6.3 mph NW10.1 kmh NW 15.2 mph24.5 kmh 29.75 in1007.5 mb 0.00 in0.0 mm 0.00 in0.0 mm 0.00 in0.0 mm
02:20 AM 52.2°F11.2°C 18.3°F-7.6°C 26% 6.7 mph NW10.8 kmh NW 15.2 mph24.5 kmh 29.75 in1007.5 mb 0.00 in0.0 mm 0.00 in0.0 mm 0.00 in0.0 mm
02:15 AM 52.2°F11.2°C 18.3°F-7.6°C 26% 6.7 mph WNW10.8 kmh WNW 13.9 mph22.4 kmh 29.76 in1007.8 mb 0.00 in0.0 mm 0.00 in0.0 mm 0.00 in0.0 mm
02:10 AM 52.2°F11.2°C 19.2°F-7.1°C 27% 7.2 mph NW11.6 kmh NW 16.6 mph26.7 kmh 29.76 in1007.8 mb 0.00 in0.0 mm 0.00 in0.0 mm 0.00 in0.0 mm
02:05 AM 52.3°F11.3°C 19.3°F-7.1°C 27% 7.6 mph NW12.2 kmh NW 19.7 mph31.7 kmh 29.76 in1007.8 mb 0.00 in0.0 mm 0.00 in0.0 mm 0.00 in0.0 mm
02:00 AM 52.2°F11.2°C 19.2°F-7.1°C 27% 8.5 mph WNW13.7 kmh WNW 20.6 mph33.2 kmh 29.76 in1007.8 mb 0.00 in0.0 mm 0.00 in0.0 mm 0.00 in0.0 mm
01:55 AM 52.2°F11.2°C 19.2°F-7.1°C 27% 8.5 mph WNW13.7 kmh WNW 22.4 mph36.0 kmh 29.76 in1007.8 mb 0.00 in0.0 mm 0.00 in0.0 mm 0.00 in0.0 mm
01:50 AM 52.0°F11.1°C 19.0°F-7.2°C 27% 9.0 mph WNW14.5 kmh WNW 22.4 mph36.0 kmh 29.77 in1008.1 mb 0.00 in0.0 mm 0.00 in0.0 mm 0.00 in0.0 mm
01:45 AM 52.0°F11.1°C 19.0°F-7.2°C 27% 9.0 mph WNW14.5 kmh WNW 24.2 mph38.9 kmh 29.76 in1007.8 mb 0.00 in0.0 mm 0.00 in0.0 mm 0.00 in0.0 mm
01:40 AM 52.0°F11.1°C 19.0°F-7.2°C 27% 8.5 mph WNW13.7 kmh WNW 24.2 mph38.9 kmh 29.76 in1007.8 mb 0.00 in0.0 mm 0.00 in0.0 mm 0.00 in0.0 mm
01:35 AM 52.0°F11.1°C 19.9°F-6.7°C 28% 8.1 mph WNW13.0 kmh WNW 17.0 mph27.4 kmh 29.76 in1007.8 mb 0.00 in0.0 mm 0.00 in0.0 mm 0.00 in0.0 mm
01:30 AM 52.0°F11.1°C 20.7°F-6.3°C 29% 7.6 mph NW12.2 kmh NW 17.0 mph27.4 kmh 29.76 in1007.8 mb 0.00 in0.0 mm 0.00 in0.0 mm 0.00 in0.0 mm
01:25 AM 52.0°F11.1°C 20.7°F-6.3°C 29% 6.7 mph NW10.8 kmh NW 16.1 mph25.9 kmh 29.77 in1008.1 mb 0.00 in0.0 mm 0.00 in0.0 mm 0.00 in0.0 mm
01:20 AM 52.2°F11.2°C 21.7°F-5.7°C 30% 6.3 mph WNW10.1 kmh WNW 16.1 mph25.9 kmh 29.77 in1008.1 mb 0.00 in0.0 mm 0.00 in0.0 mm 0.00 in0.0 mm
01:15 AM 52.3°F11.3°C 22.5°F-5.3°C 31% 6.7 mph WNW10.8 kmh WNW 18.4 mph29.6 kmh 29.77 in1008.1 mb 0.00 in0.0 mm 0.00 in0.0 mm 0.00 in0.0 mm
01:10 AM 52.5°F11.4°C 22.7°F-5.2°C 31% 7.2 mph WNW11.6 kmh WNW 18.4 mph29.6 kmh 29.77 in1008.1 mb 0.00 in0.0 mm 0.00 in0.0 mm 0.00 in0.0 mm
01:05 AM 52.5°F11.4°C 22.7°F-5.2°C 31% 6.3 mph WNW10.1 kmh WNW 13.0 mph20.9 kmh 29.77 in1008.1 mb 0.00 in0.0 mm 0.00 in0.0 mm 0.00 in0.0 mm
01:00 AM 52.5°F11.4°C 22.7°F-5.2°C 31% 5.8 mph W9.3 kmh W 13.9 mph22.4 kmh 29.77 in1008.1 mb 0.00 in0.0 mm 0.00 in0.0 mm 0.00 in0.0 mm
12:55 AM 52.9°F11.6°C 22.3°F-5.4°C 30% 6.3 mph WNW10.1 kmh WNW 16.1 mph25.9 kmh 29.77 in1008.1 mb 0.00 in0.0 mm 0.00 in0.0 mm 0.00 in0.0 mm
12:50 AM 53.1°F11.7°C 22.4°F-5.3°C 30% 6.3 mph NW10.1 kmh NW 16.1 mph25.9 kmh 29.77 in1008.1 mb 0.00 in0.0 mm 0.00 in0.0 mm 0.00 in0.0 mm
12:45 AM 53.2°F11.8°C 22.5°F-5.3°C 30% 6.3 mph WNW10.1 kmh WNW 16.6 mph26.7 kmh 29.77 in1008.1 mb 0.00 in0.0 mm 0.00 in0.0 mm 0.00 in0.0 mm
12:40 AM 53.2°F11.8°C 22.5°F-5.3°C 30% 6.7 mph NW10.8 kmh NW 16.6 mph26.7 kmh 29.77 in1008.1 mb 0.00 in0.0 mm 0.00 in0.0 mm 0.00 in0.0 mm
12:35 AM 53.1°F11.7°C 22.4°F-5.3°C 30% 7.6 mph WNW12.2 kmh WNW 17.0 mph27.4 kmh 29.78 in1008.5 mb 0.00 in0.0 mm 0.00 in0.0 mm 0.00 in0.0 mm
12:30 AM 53.1°F11.7°C 21.6°F-5.8°C 29% 9.0 mph NW14.5 kmh NW 17.9 mph28.8 kmh 29.78 in1008.5 mb 0.00 in0.0 mm 0.00 in0.0 mm 0.00 in0.0 mm
12:25 AM 53.1°F11.7°C 21.6°F-5.8°C 29% 9.4 mph NW15.1 kmh NW 17.9 mph28.8 kmh 29.78 in1008.5 mb 0.00 in0.0 mm 0.00 in0.0 mm 0.00 in0.0 mm
12:20 AM 53.1°F11.7°C 21.6°F-5.8°C 29% 9.0 mph WNW14.5 kmh WNW 20.2 mph32.5 kmh 29.78 in1008.5 mb 0.00 in0.0 mm 0.00 in0.0 mm 0.00 in0.0 mm
12:15 AM 53.2°F11.8°C 21.7°F-5.7°C 29% 9.4 mph WNW15.1 kmh WNW 20.2 mph32.5 kmh 29.78 in1008.5 mb 0.00 in0.0 mm 0.00 in0.0 mm 0.00 in0.0 mm
12:10 AM 53.2°F11.8°C 21.7°F-5.7°C 29% 9.0 mph WNW14.5 kmh WNW 19.3 mph31.1 kmh 29.78 in1008.5 mb 0.00 in0.0 mm 0.00 in0.0 mm 0.00 in0.0 mm
12:05 AM 53.1°F11.7°C 21.6°F-5.8°C 29% 8.5 mph WNW13.7 kmh WNW 20.6 mph33.2 kmh 29.78 in1008.5 mb 0.00 in0.0 mm 0.00 in0.0 mm 0.00 in0.0 mm
12:00 AM 53.1°F11.7°C 21.6°F-5.8°C 29% 8.5 mph WNW13.7 kmh WNW 20.6 mph33.2 kmh 29.78 in1008.5 mb 0.00 in0.0 mm 0.00 in0.0 mm 0.00 in0.0 mm